createdAt,value
2022-09-22T00:01:20.515Z,1.60
2022-09-22T00:03:49.484Z,1.40
2022-09-22T00:06:19.207Z,1.88
2022-09-22T00:08:49.286Z,1.52
2022-09-22T00:11:19.154Z,1.52
2022-09-22T00:13:52.052Z,1.55
2022-09-22T00:16:23.257Z,1.58
2022-09-22T00:18:50.987Z,1.50
2022-09-22T00:21:21.625Z,1.60
2022-09-22T00:23:50.108Z,1.60
2022-09-22T00:26:21.544Z,1.45
2022-09-22T00:28:52.660Z,1.75
2022-09-22T00:31:23.728Z,1.63
2022-09-22T00:33:52.274Z,2.10
2022-09-22T00:36:22.447Z,1.77
2022-09-22T00:38:51.493Z,1.83
2022-09-22T00:41:21.872Z,1.58
2022-09-22T00:43:51.659Z,2.17
2022-09-22T00:46:26.496Z,1.75
2022-09-22T00:48:58.592Z,1.90
2022-09-22T00:51:31.512Z,2.20
2022-09-22T00:54:02.516Z,1.92
2022-09-22T00:56:34.842Z,1.90
2022-09-22T00:59:06.847Z,2.10
2022-09-22T01:01:36.687Z,2.33
2022-09-22T01:04:04.800Z,1.92
2022-09-22T01:06:32.621Z,1.83
2022-09-22T01:09:02.375Z,1.67
2022-09-22T01:11:30.916Z,2.15
2022-09-22T01:14:10.412Z,2.00
2022-09-22T01:16:49.582Z,2.08
2022-09-22T01:19:39.655Z,1.92
2022-09-22T01:22:19.068Z,2.50
2022-09-22T01:25:10.074Z,2.08
2022-09-22T01:28:10.825Z,2.00
2022-09-22T01:30:43.897Z,2.00
2022-09-22T01:33:25.236Z,2.00
2022-09-22T01:36:01.853Z,1.95
2022-09-22T01:38:36.087Z,1.90
2022-09-22T01:41:08.596Z,2.45
2022-09-22T01:43:42.872Z,1.80
2022-09-22T01:46:16.466Z,1.70
2022-09-22T01:48:47.821Z,2.08
2022-09-22T01:51:20.419Z,1.83
2022-09-22T01:53:53.349Z,2.13
2022-09-22T01:56:23.880Z,2.10
2022-09-22T01:58:54.593Z,1.92
2022-09-22T02:01:28.196Z,2.28
2022-09-22T02:04:01.128Z,2.13
2022-09-22T02:06:33.577Z,2.08
2022-09-22T02:09:05.103Z,2.38
2022-09-22T02:11:32.923Z,2.08
2022-09-22T02:14:01.650Z,2.05
2022-09-22T02:16:31.858Z,2.17
2022-09-22T02:19:12.599Z,2.55
2022-09-22T02:21:42.004Z,2.05
2022-09-22T02:24:28.392Z,2.33
2022-09-22T02:26:57.361Z,2.92
2022-09-22T02:29:27.152Z,6.18
2022-09-22T02:31:57.586Z,3.40
2022-09-22T02:34:25.512Z,3.13
2022-09-22T02:37:01.080Z,2.80
2022-09-22T02:39:34.262Z,2.92
2022-09-22T02:42:25.399Z,4.03
2022-09-22T02:45:00.186Z,2.30
2022-09-22T02:47:34.804Z,3.10
2022-09-22T02:50:06.236Z,2.15
2022-09-22T02:52:34.010Z,2.60
2022-09-22T02:55:01.684Z,2.70
2022-09-22T02:57:29.371Z,2.72
2022-09-22T02:59:57.048Z,2.70
2022-09-22T03:02:24.740Z,2.88
2022-09-22T03:04:53.879Z,2.45
2022-09-22T03:07:21.658Z,2.33
2022-09-22T03:09:49.447Z,2.15
2022-09-22T03:12:17.122Z,2.72
2022-09-22T03:14:44.871Z,2.50
2022-09-22T03:17:12.576Z,2.03
2022-09-22T03:19:40.272Z,2.30
2022-09-22T03:22:09.483Z,2.67
2022-09-22T03:24:37.162Z,2.58
2022-09-22T03:27:05.069Z,2.60
2022-09-22T03:29:32.760Z,2.55
2022-09-22T03:32:00.447Z,2.83
2022-09-22T03:34:28.116Z,3.28
2022-09-22T03:36:55.828Z,3.20
2022-09-22T03:39:24.936Z,3.20
2022-09-22T03:41:52.675Z,3.15
2022-09-22T03:44:20.420Z,3.03
2022-09-22T03:46:48.110Z,3.35
2022-09-22T03:49:15.890Z,3.22
2022-09-22T03:51:43.570Z,2.90
2022-09-22T03:54:12.479Z,3.08
2022-09-22T03:56:41.511Z,3.17
2022-09-22T03:59:10.262Z,3.45
2022-09-22T04:01:37.988Z,3.03
2022-09-22T04:04:05.851Z,4.05
2022-09-22T04:06:33.833Z,4.07
2022-09-22T04:09:01.791Z,4.72
2022-09-22T04:11:29.483Z,4.38
2022-09-22T04:13:59.795Z,5.82
2022-09-22T04:16:29.030Z,4.32
2022-09-22T04:18:57.050Z,4.28
2022-09-22T04:21:24.820Z,4.47
2022-09-22T04:23:52.508Z,3.67
2022-09-22T04:26:20.188Z,4.28
2022-09-22T04:28:47.871Z,4.05
2022-09-22T04:31:16.977Z,3.90
2022-09-22T04:33:44.711Z,3.28
2022-09-22T04:36:12.784Z,3.67
2022-09-22T04:38:40.513Z,3.60
2022-09-22T04:41:08.183Z,3.08
2022-09-22T04:43:35.888Z,4.65
2022-09-22T04:46:04.747Z,4.15
2022-09-22T04:48:33.864Z,3.50
2022-09-22T04:51:01.536Z,4.00
2022-09-22T04:53:29.216Z,3.65
2022-09-22T04:55:57.244Z,4.10
2022-09-22T04:58:24.969Z,3.55
2022-09-22T05:00:55.613Z,4.05
2022-09-22T05:03:23.398Z,3.10
2022-09-22T05:05:52.459Z,3.50
2022-09-22T05:08:20.136Z,3.15
2022-09-22T05:10:47.922Z,3.05
2022-09-22T05:13:15.662Z,4.25
2022-09-22T05:15:43.395Z,3.40
2022-09-22T05:18:11.603Z,3.97
2022-09-22T05:20:39.542Z,3.35
2022-09-22T05:23:08.568Z,3.65
2022-09-22T05:25:36.705Z,3.75
2022-09-22T05:28:04.383Z,3.70
2022-09-22T05:30:32.049Z,3.85
2022-09-22T05:32:59.830Z,4.68
2022-09-22T05:35:27.761Z,4.07
2022-09-22T05:37:55.654Z,3.58
2022-09-22T05:40:26.251Z,3.30
2022-09-22T05:42:54.921Z,3.63
2022-09-22T05:45:23.083Z,4.50
2022-09-22T05:47:50.975Z,3.78
2022-09-22T05:50:20.260Z,4.32
2022-09-22T05:52:48.037Z,4.53
2022-09-22T05:55:16.297Z,3.58
2022-09-22T05:57:45.315Z,3.70
2022-09-22T06:00:13.808Z,3.80
2022-09-22T06:02:43.931Z,4.78
2022-09-22T06:05:11.792Z,3.88
2022-09-22T06:07:39.670Z,3.47
2022-09-22T06:10:10.323Z,4.32
2022-09-22T06:12:38.227Z,4.18
2022-09-22T06:15:08.816Z,4.63
2022-09-22T06:17:36.502Z,3.95
2022-09-22T06:20:04.643Z,4.13
2022-09-22T06:22:34.821Z,3.95
2022-09-22T06:25:02.768Z,3.75
2022-09-22T06:27:30.459Z,3.78
2022-09-22T06:29:58.714Z,4.10
2022-09-22T06:32:27.748Z,4.20
2022-09-22T06:34:55.979Z,3.88
2022-09-22T06:37:23.675Z,3.65
2022-09-22T06:39:51.366Z,3.88
2022-09-22T06:42:19.057Z,3.58
2022-09-22T06:44:47.815Z,3.88
2022-09-22T06:47:15.615Z,3.60
2022-09-22T06:49:44.980Z,3.40
2022-09-22T06:52:14.174Z,4.25
2022-09-22T06:54:42.836Z,4.22
2022-09-22T06:57:11.948Z,3.70
2022-09-22T06:59:41.201Z,3.60
2022-09-22T07:02:10.484Z,3.88
2022-09-22T07:04:38.317Z,3.60
2022-09-22T07:07:08.712Z,3.58
2022-09-22T07:09:36.380Z,3.17
2022-09-22T07:12:06.079Z,3.47
2022-09-22T07:14:33.851Z,3.42
2022-09-22T07:17:01.532Z,3.97
2022-09-22T07:19:29.885Z,3.33
2022-09-22T07:21:58.400Z,3.72
2022-09-22T07:24:27.864Z,3.22
2022-09-22T07:26:55.589Z,3.25
2022-09-22T07:29:23.412Z,3.08
2022-09-22T07:31:51.642Z,2.80
2022-09-22T07:34:19.601Z,2.75
2022-09-22T07:36:48.914Z,3.03
2022-09-22T07:39:16.984Z,2.50
2022-09-22T07:41:46.811Z,2.92
2022-09-22T07:44:32.869Z,3.13
2022-09-22T07:47:01.090Z,3.28
2022-09-22T07:49:28.858Z,3.83
2022-09-22T07:51:57.153Z,3.72
2022-09-22T07:54:26.466Z,3.78
2022-09-22T07:56:58.030Z,3.15
2022-09-22T07:59:26.083Z,3.28
2022-09-22T08:01:54.135Z,3.92
2022-09-22T08:04:23.810Z,3.00
2022-09-22T08:06:55.253Z,3.28
2022-09-22T08:09:23.695Z,3.10
2022-09-22T08:11:52.915Z,3.33
2022-09-22T08:14:23.808Z,4.15
2022-09-22T08:16:53.105Z,3.80
2022-09-22T08:19:23.143Z,3.45
2022-09-22T08:21:53.916Z,3.42
2022-09-22T08:24:22.719Z,3.33
2022-09-22T08:26:52.595Z,3.60
2022-09-22T08:29:22.583Z,3.10
2022-09-22T08:31:51.301Z,3.17
2022-09-22T08:34:20.006Z,3.67
2022-09-22T08:36:48.224Z,3.63
2022-09-22T08:39:17.068Z,3.17
2022-09-22T08:42:08.284Z,3.50
2022-09-22T08:44:43.108Z,2.95
2022-09-22T08:47:38.021Z,3.95
2022-09-22T08:50:34.968Z,3.47
2022-09-22T08:53:09.904Z,3.40
2022-09-22T08:55:41.049Z,3.63
2022-09-22T08:58:24.634Z,3.65
2022-09-22T09:01:00.799Z,3.20
2022-09-22T09:03:42.498Z,3.47
2022-09-22T09:06:15.538Z,2.70
2022-09-22T09:09:11.074Z,2.78
2022-09-22T09:11:58.782Z,2.53
2022-09-22T09:14:41.332Z,3.25
2022-09-22T09:17:15.490Z,3.10
2022-09-22T09:19:45.703Z,3.10
2022-09-22T09:22:22.734Z,2.65
2022-09-22T09:25:26.004Z,2.40
2022-09-22T09:27:46.915Z,2.30
2022-09-22T09:30:17.954Z,2.20
2022-09-22T09:32:51.419Z,1.85
2022-09-22T09:35:26.442Z,1.80
2022-09-22T09:37:58.913Z,2.15
2022-09-22T09:40:27.495Z,1.90
2022-09-22T09:43:03.263Z,2.42
2022-09-22T09:45:38.752Z,2.00
2022-09-22T09:48:20.787Z,1.75
2022-09-22T09:50:48.662Z,1.70
2022-09-22T09:53:31.632Z,2.08
2022-09-22T09:55:59.671Z,1.80
2022-09-22T09:58:45.307Z,1.60
2022-09-22T10:01:15.326Z,1.73
2022-09-22T10:03:48.110Z,1.70
2022-09-22T10:06:24.005Z,1.98
2022-09-22T10:08:53.449Z,1.75
2022-09-22T10:11:31.031Z,1.33
2022-09-22T10:13:59.294Z,1.80
2022-09-22T10:16:28.612Z,2.03
2022-09-22T10:19:22.306Z,1.88
2022-09-22T10:21:50.257Z,1.90
2022-09-22T10:24:30.408Z,1.05
2022-09-22T10:26:59.491Z,1.00
2022-09-22T10:29:28.967Z,0.75
2022-09-22T10:32:13.558Z,1.50
2022-09-22T10:37:15.442Z,1.00
2022-09-22T10:39:46.288Z,1.33
2022-09-22T10:42:27.253Z,1.42
2022-09-22T10:45:04.608Z,0.77
2022-09-22T10:47:40.571Z,0.95
2022-09-22T10:50:41.141Z,1.50
2022-09-22T10:53:28.493Z,1.00
2022-09-22T10:56:05.599Z,0.90
2022-09-22T10:58:48.427Z,0.77
2022-09-22T11:01:32.916Z,0.75
2022-09-22T11:04:27.001Z,0.77
2022-09-22T11:07:33.771Z,0.98
2022-09-22T11:10:34.896Z,0.80
2022-09-22T11:13:14.768Z,1.27
2022-09-22T11:15:57.721Z,0.80
2022-09-22T11:18:49.186Z,0.80
2022-09-22T11:21:31.161Z,0.70
2022-09-22T11:24:16.695Z,0.70
2022-09-22T11:26:49.484Z,0.80
2022-09-22T11:29:45.003Z,0.88
2022-09-22T11:32:26.329Z,0.80
2022-09-22T11:35:15.018Z,0.88
2022-09-22T11:37:55.184Z,0.70
2022-09-22T11:40:48.489Z,1.52
2022-09-22T11:43:32.491Z,0.82
2022-09-22T11:46:07.875Z,1.42
2022-09-22T11:48:53.835Z,0.80
2022-09-22T11:51:41.443Z,1.00
2022-09-22T11:54:47.265Z,0.90
2022-09-22T11:57:19.776Z,0.90
2022-09-22T11:59:54.332Z,0.90
2022-09-22T12:02:27.158Z,0.75
2022-09-22T12:05:00.142Z,0.80
2022-09-22T12:07:32.586Z,0.73
2022-09-22T12:10:03.695Z,0.80
2022-09-22T12:12:34.113Z,0.77
2022-09-22T12:15:08.597Z,1.00
2022-09-22T12:17:46.354Z,1.17
2022-09-22T12:20:25.377Z,0.68
2022-09-22T12:23:25.879Z,0.50
2022-09-22T12:25:55.484Z,0.70
2022-09-22T12:28:26.660Z,0.80
2022-09-22T12:31:07.987Z,0.80
2022-09-22T12:33:37.290Z,0.90
2022-09-22T12:36:06.744Z,0.70
2022-09-22T12:38:34.790Z,0.77
2022-09-22T12:41:04.223Z,0.95
2022-09-22T12:43:35.603Z,0.90
2022-09-22T12:46:12.343Z,0.70
2022-09-22T12:48:40.128Z,0.77
2022-09-22T12:51:31.329Z,0.80
2022-09-22T12:54:47.811Z,0.75
2022-09-22T12:57:44.611Z,1.42
2022-09-22T13:00:30.641Z,0.65
2022-09-22T13:03:01.536Z,0.98
2022-09-22T13:05:34.779Z,0.90
2022-09-22T13:08:02.831Z,1.00
2022-09-22T13:10:56.541Z,1.02
2022-09-22T13:13:39.656Z,0.70
2022-09-22T13:16:34.555Z,0.60
2022-09-22T13:19:03.374Z,1.00
2022-09-22T13:21:33.484Z,1.50
2022-09-22T13:24:03.704Z,0.93
2022-09-22T13:26:34.582Z,0.63
2022-09-22T13:29:11.593Z,0.70
2022-09-22T13:31:42.963Z,1.00
2022-09-22T13:34:27.632Z,1.48
2022-09-22T13:36:59.509Z,1.17
2022-09-22T13:39:30.698Z,0.93
2022-09-22T13:42:05.611Z,1.00
2022-09-22T13:44:35.703Z,0.90
2022-09-22T13:47:12.736Z,0.63
2022-09-22T13:49:43.671Z,0.75
2022-09-22T13:52:17.652Z,0.90
2022-09-22T13:54:50.943Z,2.78
2022-09-22T13:57:23.092Z,0.70
2022-09-22T13:59:52.602Z,1.10
2022-09-22T14:02:30.780Z,1.25
2022-09-22T14:05:03.164Z,1.50
2022-09-22T14:07:38.348Z,1.00
2022-09-22T14:10:19.469Z,0.80
2022-09-22T14:12:47.223Z,0.68
2022-09-22T14:15:33.460Z,0.75
2022-09-22T14:20:30.859Z,0.90
2022-09-22T14:22:58.583Z,1.15
2022-09-22T14:25:26.998Z,1.10
2022-09-22T14:27:59.640Z,1.00
2022-09-22T14:30:30.920Z,1.00
2022-09-22T14:33:02.763Z,1.00
2022-09-22T14:35:32.670Z,0.60
2022-09-22T14:38:11.155Z,0.75
2022-09-22T14:40:52.483Z,0.60
2022-09-22T14:43:24.905Z,0.68
2022-09-22T14:46:00.493Z,0.75
2022-09-22T14:48:31.832Z,1.40
2022-09-22T14:51:02.815Z,0.73
2022-09-22T14:53:33.659Z,0.93
2022-09-22T14:56:05.808Z,1.00
2022-09-22T14:58:40.486Z,0.95
2022-09-22T15:01:39.715Z,1.45
2022-09-22T15:04:16.342Z,0.85
2022-09-22T15:06:46.387Z,0.80
2022-09-22T15:09:27.455Z,0.80
2022-09-22T15:11:57.310Z,0.70
2022-09-22T15:14:40.575Z,0.98
2022-09-22T15:17:53.827Z,0.75
2022-09-22T15:20:24.747Z,0.80
2022-09-22T15:22:53.955Z,0.98
2022-09-22T15:25:22.104Z,0.80
2022-09-22T15:27:53.311Z,0.80
2022-09-22T15:30:21.817Z,1.02
2022-09-22T15:32:50.270Z,0.90
2022-09-22T15:35:20.197Z,0.73
2022-09-22T15:37:50.546Z,0.70
2022-09-22T15:40:21.168Z,1.42
2022-09-22T15:43:09.024Z,1.05
2022-09-22T15:45:38.741Z,1.20
2022-09-22T15:48:06.522Z,0.90
2022-09-22T15:50:34.752Z,2.72
2022-09-22T15:53:03.781Z,0.80
2022-09-22T15:55:31.454Z,1.00
2022-09-22T15:58:09.460Z,1.30
2022-09-22T16:00:37.715Z,1.63
2022-09-22T16:03:13.864Z,0.80
2022-09-22T16:05:42.048Z,1.33
2022-09-22T16:08:15.587Z,1.13
2022-09-22T16:10:44.165Z,0.95
2022-09-22T16:13:12.787Z,0.80
2022-09-22T16:15:41.390Z,1.13
2022-09-22T16:18:10.013Z,1.30
2022-09-22T16:20:38.247Z,1.15
2022-09-22T16:23:07.383Z,1.23
2022-09-22T16:25:39.093Z,1.00
2022-09-22T16:28:07.399Z,0.85
2022-09-22T16:30:35.254Z,0.90
2022-09-22T16:33:03.023Z,0.70
2022-09-22T16:35:30.860Z,0.88
2022-09-22T16:37:58.619Z,0.70
2022-09-22T16:40:29.842Z,0.95
2022-09-22T16:42:59.046Z,0.70
2022-09-22T16:45:45.015Z,0.70
2022-09-22T16:48:12.972Z,1.00
2022-09-22T16:50:42.402Z,0.80
2022-09-22T16:53:11.015Z,1.00
2022-09-22T16:55:38.691Z,0.98
2022-09-22T16:58:13.008Z,0.82
2022-09-22T17:00:40.691Z,0.75
2022-09-22T17:03:09.000Z,0.80
2022-09-22T17:05:38.500Z,0.85
2022-09-22T17:08:08.077Z,0.73
2022-09-22T17:10:36.011Z,0.70
2022-09-22T17:13:05.098Z,0.80
2022-09-22T17:15:36.036Z,0.80
2022-09-22T17:18:04.853Z,1.10
2022-09-22T17:20:32.623Z,8.52
2022-09-22T17:23:00.374Z,29.73
2022-09-22T17:25:28.921Z,7.63
2022-09-22T17:27:57.573Z,2.20
2022-09-22T17:30:26.200Z,1.20
2022-09-22T17:32:55.356Z,0.85
2022-09-22T17:35:23.063Z,1.10
2022-09-22T17:37:52.226Z,1.50
2022-09-22T17:40:19.992Z,1.00
2022-09-22T17:42:48.150Z,0.70
2022-09-22T17:45:16.028Z,1.13
2022-09-22T17:48:01.395Z,0.90
2022-09-22T17:50:48.320Z,1.05
2022-09-22T17:53:38.851Z,0.90
2022-09-22T17:56:07.609Z,0.77
2022-09-22T17:58:37.232Z,1.17
2022-09-22T18:01:05.101Z,0.88
2022-09-22T18:03:32.816Z,1.20
2022-09-22T18:06:03.806Z,1.00
2022-09-22T18:08:32.199Z,0.85
2022-09-22T18:11:01.487Z,0.90
2022-09-22T18:13:29.295Z,1.10
2022-09-22T18:15:57.011Z,0.90
2022-09-22T18:18:24.944Z,0.88
2022-09-22T18:20:52.675Z,1.10
2022-09-22T18:23:23.082Z,0.88
2022-09-22T18:25:53.331Z,0.95
2022-09-22T18:28:23.075Z,1.13
2022-09-22T18:30:50.875Z,0.90
2022-09-22T18:33:19.126Z,1.45
2022-09-22T18:35:47.401Z,1.58
2022-09-22T18:38:15.287Z,1.55
2022-09-22T18:40:44.426Z,1.30
2022-09-22T18:43:12.452Z,1.30
2022-09-22T18:45:40.144Z,1.30
2022-09-22T18:48:08.440Z,1.23
2022-09-22T18:50:36.904Z,1.45
2022-09-22T18:53:05.531Z,1.63
2022-09-22T18:55:33.307Z,1.40
2022-09-22T18:58:02.455Z,1.92
2022-09-22T19:00:30.995Z,2.53
2022-09-22T19:02:58.960Z,2.70
2022-09-22T19:05:28.248Z,3.00
2022-09-22T19:07:56.211Z,2.05
2022-09-22T19:10:23.907Z,1.58
2022-09-22T19:12:51.713Z,1.42
2022-09-22T19:15:21.237Z,2.28
2022-09-22T19:17:50.165Z,1.60
2022-09-22T19:20:20.641Z,1.83
2022-09-22T19:22:49.214Z,1.77
2022-09-22T19:25:17.859Z,2.10
2022-09-22T19:27:46.094Z,2.10
2022-09-22T19:30:14.461Z,2.30
2022-09-22T19:32:45.890Z,3.13
2022-09-22T19:35:13.904Z,3.10
2022-09-22T19:37:41.765Z,2.88
2022-09-22T19:40:13.056Z,5.13
2022-09-22T19:42:40.955Z,4.63
2022-09-22T19:45:09.297Z,3.80
2022-09-22T19:47:37.412Z,4.13
2022-09-22T19:50:08.427Z,4.03
2022-09-22T19:52:38.048Z,3.78
2022-09-22T19:55:06.739Z,3.70
2022-09-22T19:57:41.057Z,2.50
2022-09-22T20:00:10.328Z,2.80
2022-09-22T20:02:38.166Z,2.72
2022-09-22T20:05:18.847Z,3.33
2022-09-22T20:07:46.739Z,3.10
2022-09-22T20:10:14.487Z,2.95
2022-09-22T20:12:42.206Z,3.15
2022-09-22T20:15:12.306Z,2.88
2022-09-22T20:17:40.309Z,2.63
2022-09-22T20:20:10.237Z,3.58
2022-09-22T20:22:41.366Z,2.85
2022-09-22T20:25:23.581Z,2.50
2022-09-22T20:27:51.697Z,3.17
2022-09-22T20:30:19.618Z,1.92
2022-09-22T20:32:47.578Z,1.88
2022-09-22T20:35:18.993Z,1.42
2022-09-22T20:37:46.736Z,1.15
2022-09-22T20:40:18.467Z,1.20
2022-09-22T20:42:46.864Z,1.30
2022-09-22T20:45:14.556Z,1.40
2022-09-22T20:47:42.712Z,1.15
2022-09-22T20:50:11.856Z,1.30
2022-09-22T20:52:42.816Z,1.35
2022-09-22T20:55:11.451Z,1.60
2022-09-22T20:57:40.133Z,1.23
2022-09-22T21:00:09.766Z,1.27
2022-09-22T21:02:38.745Z,1.42
2022-09-22T21:05:06.768Z,1.33
2022-09-22T21:07:34.911Z,1.10
2022-09-22T21:10:21.926Z,1.23
2022-09-22T21:12:50.591Z,1.65
2022-09-22T21:15:19.230Z,1.23
2022-09-22T21:17:48.479Z,0.93
2022-09-22T21:20:16.382Z,1.27
2022-09-22T21:22:45.020Z,1.02
2022-09-22T21:25:14.079Z,0.90
2022-09-22T21:27:41.799Z,1.20
2022-09-22T21:30:10.348Z,1.20
2022-09-22T21:32:38.585Z,1.15
2022-09-22T21:35:07.389Z,1.35
2022-09-22T21:37:35.967Z,1.20
2022-09-22T21:40:03.779Z,0.90
2022-09-22T21:42:32.871Z,1.00
2022-09-22T21:45:01.031Z,1.20
2022-09-22T21:47:28.785Z,0.90
2022-09-22T21:49:56.455Z,1.17
2022-09-22T21:52:24.166Z,0.90
2022-09-22T21:54:51.879Z,1.08
2022-09-22T21:57:19.835Z,1.00
2022-09-22T21:59:48.865Z,1.02
2022-09-22T22:02:16.589Z,0.98
2022-09-22T22:04:46.376Z,1.08
2022-09-22T22:07:15.171Z,0.98
2022-09-22T22:09:42.864Z,1.10
2022-09-22T22:12:11.839Z,1.00
2022-09-22T22:14:39.553Z,1.25
2022-09-22T22:17:08.554Z,1.23
2022-09-22T22:19:36.285Z,1.08
2022-09-22T22:22:04.575Z,0.93
2022-09-22T22:24:38.449Z,0.95
2022-09-22T22:27:11.111Z,1.00
2022-09-22T22:29:39.480Z,1.05
2022-09-22T22:32:10.648Z,0.90
2022-09-22T22:34:38.804Z,1.20
2022-09-22T22:37:09.410Z,0.88
2022-09-22T22:39:37.309Z,1.20
2022-09-22T22:42:05.706Z,1.10
2022-09-22T22:44:34.997Z,1.17
2022-09-22T22:47:02.698Z,1.20
2022-09-22T22:49:32.601Z,1.10
2022-09-22T22:52:00.346Z,1.13
2022-09-22T22:54:28.017Z,1.20
2022-09-22T22:56:56.100Z,1.15
2022-09-22T22:59:23.841Z,1.05
2022-09-22T23:01:51.646Z,1.30
2022-09-22T23:04:19.373Z,1.00
2022-09-22T23:06:48.579Z,1.30
2022-09-22T23:09:17.749Z,1.10
2022-09-22T23:11:46.523Z,1.23
2022-09-22T23:14:15.857Z,1.45
2022-09-22T23:16:45.894Z,0.85
2022-09-22T23:19:15.092Z,1.20
2022-09-22T23:21:43.038Z,1.40
2022-09-22T23:24:15.982Z,1.10
2022-09-22T23:26:44.234Z,1.20
2022-09-22T23:29:11.935Z,1.15
2022-09-22T23:31:39.641Z,1.27
2022-09-22T23:34:07.315Z,1.10
2022-09-22T23:36:35.053Z,1.20
2022-09-22T23:39:04.168Z,1.30
2022-09-22T23:41:34.655Z,1.30
2022-09-22T23:44:03.373Z,1.20
2022-09-22T23:46:31.636Z,0.80
2022-09-22T23:48:59.863Z,1.13
2022-09-22T23:51:27.807Z,1.10
2022-09-22T23:53:56.036Z,1.20
2022-09-22T23:56:24.015Z,1.17
2022-09-22T23:58:53.059Z,1.48
